Time;durP1;ratioP1;P1;durP2;ratioP2;P2;SDS_P1;SDS_P2;PMS_P1;PMS_P2;Temp;Humidity;BMP_temperature;BMP_pressure;BME280_temperature;BME280_humidity;BME280_pressure;Samples;Min_cycle;Max_cycle;Signal;HPM_P1;HPM_P2
2022/10/03 00:02:32;;;;;;;5.93;3.83;;;6.90;99.90;;;6.32;100.00;97619.53;5059954;27;129460;-76
2022/10/03 00:05:24;;;;;;;5.85;4.00;;;6.90;99.90;;;6.36;100.00;97629.31;5061124;27;120260;-72
2022/10/03 00:08:09;;;;;;;6.15;3.78;;;6.90;99.90;;;6.38;100.00;97632.47;5060308;27;119412;-71
2022/10/03 00:10:57;;;;;;;6.40;3.47;;;6.90;99.90;;;6.36;100.00;97626.63;5059990;27;130841;-71
2022/10/03 00:13:36;;;;;;;6.20;3.70;;;6.90;99.90;;;6.28;100.00;97616.72;5059773;27;130704;-73
2022/10/03 00:16:14;;;;;;;6.72;3.47;;;6.90;99.90;;;6.39;100.00;97609.81;5060175;27;120001;-71
2022/10/03 00:18:57;;;;;;;6.55;3.72;;;6.90;99.90;;;6.40;100.00;97602.50;5060607;27;119150;-74
2022/10/03 00:21:51;;;;;;;6.63;3.72;;;6.90;99.90;;;6.40;100.00;97587.13;5044057;27;129602;-75
2022/10/03 00:24:35;;;;;;;5.32;3.33;;;6.90;99.90;;;6.41;100.00;97583.31;5041627;27;129459;-72
2022/10/03 00:27:16;;;;;;;5.25;3.70;;;6.90;99.90;;;6.47;100.00;97582.00;5058818;27;122396;-73
2022/10/03 00:30:04;;;;;;;5.30;3.45;;;6.90;99.90;;;6.34;100.00;97582.28;5041622;27;121802;-71
2022/10/03 00:32:55;;;;;;;5.20;3.42;;;6.90;99.90;;;6.36;100.00;97585.41;5059567;27;129970;-70
2022/10/03 00:35:52;;;;;;;5.53;3.55;;;6.90;99.90;;;6.32;100.00;97579.91;5059770;27;129874;-76
2022/10/03 00:39:13;;;;;;;7.68;3.67;;;6.90;99.90;;;6.35;100.00;97562.31;5059629;27;119552;-73
2022/10/03 00:42:44;;;;;;;5.70;3.40;;;6.90;99.90;;;6.33;100.00;97565.31;4980415;27;119089;-75
2022/10/03 00:46:14;;;;;;;5.50;3.50;;;6.90;99.90;;;6.34;100.00;97560.72;5059355;27;129811;-73
2022/10/03 00:49:20;;;;;;;6.20;3.90;;;6.80;99.90;;;6.27;100.00;97562.03;5042114;27;129398;-73
2022/10/03 00:52:10;;;;;;;5.10;3.45;;;6.80;99.90;;;6.25;100.00;97553.50;5063396;27;119186;-73
2022/10/03 00:54:54;;;;;;;5.68;3.58;;;6.80;99.90;;;6.23;100.00;97560.31;5048237;27;118099;-71
2022/10/03 00:57:54;;;;;;;5.97;3.45;;;6.80;99.90;;;6.15;100.00;97545.81;5061621;27;129681;-72
2022/10/03 01:00:26;;;;;;;6.85;4.03;;;6.80;99.90;;;6.19;100.00;97543.28;5062479;27;129363;-72
2022/10/03 01:03:44;;;;;;;6.95;4.05;;;6.80;99.90;;;6.26;100.00;97540.81;5062593;27;119663;-72
2022/10/03 01:06:29;;;;;;;5.95;4.10;;;6.80;99.90;;;6.30;100.00;97533.66;5064500;27;119755;-72
2022/10/03 01:09:20;;;;;;;5.80;3.75;;;6.80;99.90;;;6.31;100.00;97535.25;5062521;27;130486;-71
2022/10/03 01:12:15;;;;;;;6.35;4.18;;;6.80;99.90;;;6.39;100.00;97525.47;5066987;27;102615;-71
2022/10/03 01:15:18;;;;;;;6.43;4.35;;;6.80;99.90;;;6.39;100.00;97520.09;5054527;27;119491;-71
2022/10/03 01:18:07;;;;;;;7.75;4.30;;;6.80;99.90;;;6.29;100.00;97521.28;5060630;27;119594;-73
2022/10/03 01:20:51;;;;;;;7.38;4.18;;;6.80;99.90;;;6.22;100.00;97521.06;5062398;27;129961;-70
2022/10/03 01:24:07;;;;;;;8.00;5.20;;;6.80;99.90;;;6.28;100.00;97527.81;5062061;27;130164;-72
2022/10/03 01:27:03;;;;;;;8.77;4.82;;;6.80;99.90;;;6.29;100.00;97515.91;5043253;27;122162;-72
2022/10/03 01:32:44;;;;;;;7.38;4.60;;;6.80;99.90;;;6.16;100.00;97514.31;5062554;27;130185;-72
2022/10/03 01:35:27;;;;;;;6.80;4.20;;;6.80;99.90;;;6.24;100.00;97513.44;5062271;27;129049;-70
2022/10/03 01:38:09;;;;;;;7.57;4.53;;;6.80;99.90;;;6.21;100.00;97519.47;5062625;27;119568;-72
2022/10/03 01:40:46;;;;;;;7.22;4.18;;;6.80;99.90;;;6.18;100.00;97510.16;5062585;27;119631;-70
2022/10/03 01:43:20;;;;;;;6.68;3.97;;;6.80;99.90;;;6.25;100.00;97501.53;5062118;27;129946;-73
2022/10/03 01:46:01;;;;;;;6.65;3.80;;;6.80;99.90;;;6.25;100.00;97496.94;5062533;27;129346;-75
2022/10/03 01:48:39;;;;;;;7.45;3.95;;;6.80;99.90;;;6.14;100.00;97498.47;5062384;27;119694;-75
2022/10/03 01:51:15;;;;;;;7.32;3.83;;;6.80;99.90;;;6.17;100.00;97497.81;5046458;27;119725;-73
2022/10/03 01:54:04;;;;;;;5.50;3.50;;;6.80;99.90;;;6.12;100.00;97484.53;5060823;27;129994;-71
2022/10/03 01:56:39;;;;;;;6.10;3.58;;;6.80;99.90;;;6.15;100.00;97499.25;5041254;27;129590;-76
2022/10/03 01:59:14;;;;;;;5.60;3.58;;;6.70;99.90;;;6.05;100.00;97505.84;5023667;27;120330;-70
2022/10/03 02:01:52;;;;;;;6.03;3.70;;;6.80;99.90;;;6.11;100.00;97489.13;5040720;27;119709;-73
2022/10/03 02:04:37;;;;;;;5.75;3.13;;;6.80;99.90;;;6.07;100.00;97477.44;5041663;27;130288;-73
2022/10/03 02:07:20;;;;;;;7.10;3.58;;;6.70;99.90;;;6.21;100.00;97482.53;5040885;27;129973;-75
2022/10/03 02:10:05;;;;;;;7.28;3.80;;;6.70;99.90;;;6.21;100.00;97477.16;5041609;27;120362;-75
2022/10/03 02:12:40;;;;;;;9.95;4.35;;;6.70;99.90;;;6.17;100.00;97481.66;5041889;27;119435;-71
2022/10/03 02:15:19;;;;;;;5.78;3.75;;;6.70;99.90;;;6.16;100.00;97485.44;5041020;27;130900;-72
2022/10/03 02:17:56;;;;;;;6.28;3.70;;;6.70;99.90;;;6.11;100.00;97482.97;5040876;27;129769;-71
2022/10/03 02:20:36;;;;;;;5.88;3.63;;;6.70;99.90;;;6.14;100.00;97465.34;5025339;27;120833;-73
2022/10/03 02:23:38;;;;;;;6.18;3.50;;;6.70;99.90;;;6.08;100.00;97468.25;5026448;27;120209;-77
2022/10/03 02:26:46;;;;;;;5.68;3.45;;;6.70;99.90;;;6.04;100.00;97472.72;5041163;27;130587;-72
2022/10/03 02:29:42;;;;;;;7.45;3.42;;;6.60;99.90;;;5.97;100.00;97472.47;5058247;27;129443;-70
2022/10/03 02:32:38;;;;;;;7.63;3.17;;;6.60;99.90;;;5.95;100.00;97453.13;5062229;27;119787;-71
2022/10/03 02:35:37;;;;;;;6.15;3.42;;;6.60;99.90;;;5.98;100.00;97460.56;5030518;27;119836;-73
2022/10/03 02:38:53;;;;;;;5.85;3.25;;;6.60;99.90;;;5.94;100.00;97459.66;5061199;27;130686;-70
2022/10/03 02:42:07;;;;;;;5.63;3.40;;;6.60;99.90;;;5.89;100.00;97441.78;5008169;27;129468;-75
2022/10/03 02:45:30;;;;;;;6.28;3.60;;;6.60;99.90;;;6.03;100.00;97448.81;5040933;27;119735;-72
2022/10/03 02:48:42;;;;;;;5.80;3.40;;;6.60;99.90;;;6.03;100.00;97428.09;5001749;27;120014;-73
2022/10/03 02:52:04;;;;;;;5.95;3.72;;;6.60;99.90;;;6.04;100.00;97421.56;5039757;27;129809;-73
2022/10/03 02:55:49;;;;;;;9.80;3.22;;;6.60;99.90;;;5.99;100.00;97419.09;5040587;27;129265;-72
2022/10/03 02:59:26;;;;;;;6.30;3.47;;;6.60;99.90;;;5.96;100.00;97406.25;4945128;28;119477;-76
2022/10/03 03:02:26;;;;;;;5.88;3.58;;;6.60;99.90;;;5.93;100.00;97406.91;4839014;28;119301;-75
2022/10/03 03:05:56;;;;;;;7.22;3.40;;;6.50;99.90;;;5.90;100.00;97411.03;4939350;28;129553;-75
2022/10/03 03:09:02;;;;;;;7.00;3.80;;;6.60;99.90;;;5.92;100.00;97386.47;4949523;28;129422;-72
2022/10/03 03:12:16;;;;;;;7.25;4.07;;;6.50;99.90;;;5.95;100.00;97383.13;4944262;28;119397;-75
2022/10/03 03:16:01;;;;;;;7.13;3.63;;;6.50;99.90;;;6.05;100.00;97355.81;4935274;28;119867;-74
2022/10/03 03:18:37;;;;;;;7.63;3.65;;;6.50;99.90;;;6.10;100.00;97349.44;4954570;28;130484;-78
2022/10/03 03:21:27;;;;;;;6.43;3.30;;;6.50;99.90;;;6.08;100.00;97347.06;4925159;28;129357;-74
2022/10/03 03:24:17;;;;;;;6.57;3.75;;;6.50;99.90;;;6.07;100.00;97345.50;4956316;28;121717;-77
2022/10/03 03:27:15;;;;;;;7.60;3.88;;;6.50;99.90;;;6.05;100.00;97339.66;4938270;28;121701;-73
2022/10/03 03:29:54;;;;;;;7.55;3.80;;;6.50;99.90;;;6.03;100.00;97344.59;4939520;28;129847;-74
2022/10/03 03:32:36;;;;;;;7.80;3.90;;;6.50;99.90;;;6.04;100.00;97343.47;4941298;28;129154;-76
2022/10/03 03:35:16;;;;;;;7.70;4.10;;;6.50;99.90;;;6.06;100.00;97341.25;4965022;27;119314;-72
2022/10/03 03:37:54;;;;;;;6.60;3.97;;;6.50;99.90;;;6.08;100.00;97346.28;5025963;27;119379;-74
2022/10/03 03:40:45;;;;;;;6.40;4.07;;;6.50;99.90;;;5.99;100.00;97346.38;5045605;27;129013;-78
2022/10/03 03:43:47;;;;;;;6.47;4.50;;;6.50;99.90;;;5.94;100.00;97343.88;5060587;27;129934;-75
2022/10/03 03:46:32;;;;;;;8.30;4.10;;;6.50;99.90;;;5.97;100.00;97327.09;5060532;27;120159;-75
2022/10/03 03:49:31;;;;;;;8.55;5.00;;;6.50;99.90;;;5.98;100.00;97325.94;5060200;27;119723;-75
2022/10/03 03:52:23;;;;;;;6.40;4.10;;;6.50;99.90;;;6.00;100.00;97304.06;5044013;27;129023;-73
2022/10/03 03:55:29;;;;;;;6.97;4.47;;;6.40;99.90;;;5.99;100.00;97306.00;5058451;27;129877;-76
2022/10/03 03:58:18;;;;;;;5.75;3.85;;;6.40;99.90;;;5.96;100.00;97290.47;5060362;27;120328;-72
2022/10/03 04:01:06;;;;;;;8.02;4.35;;;6.40;99.90;;;5.98;100.00;97295.56;5060409;27;120490;-73
2022/10/03 04:03:50;;;;;;;10.40;5.53;;;6.40;99.90;;;5.91;100.00;97301.47;5059913;27;129899;-74
2022/10/03 04:06:36;;;;;;;7.22;4.80;;;6.40;99.90;;;5.84;100.00;97290.47;5062903;27;129276;-73
2022/10/03 04:09:34;;;;;;;7.22;4.82;;;6.30;99.90;;;5.91;100.00;97293.41;5060270;27;120317;-73
2022/10/03 04:12:18;;;;;;;7.30;4.40;;;6.30;99.90;;;5.90;100.00;97299.88;5060455;27;119431;-74
2022/10/03 04:15:21;;;;;;;9.10;6.03;;;6.30;99.90;;;5.91;100.00;97288.00;5044672;27;129811;-71
2022/10/03 04:21:39;;;;;;;5.83;3.67;;;6.30;99.90;;;5.89;100.00;97282.16;5059095;27;122984;-73
2022/10/03 04:25:00;;;;;;;6.63;3.90;;;6.30;99.90;;;5.83;100.00;97273.53;5031274;27;121320;-73
2022/10/03 04:28:09;;;;;;;8.75;3.70;;;6.30;99.90;;;5.84;100.00;97272.38;5020592;27;129711;-73
2022/10/03 04:30:54;;;;;;;7.22;4.57;;;6.30;99.90;;;5.89;100.00;97276.78;5063508;27;130016;-75
2022/10/03 04:33:38;;;;;;;7.32;4.00;;;6.30;99.90;;;5.86;100.00;97266.66;5045182;27;120471;-74
2022/10/03 04:36:33;;;;;;;6.32;4.03;;;6.30;99.90;;;5.89;100.00;97266.00;5063799;27;119482;-74
2022/10/03 04:39:10;;;;;;;5.93;3.85;;;6.30;99.90;;;5.82;100.00;97250.41;5044833;27;130206;-73
2022/10/03 04:41:49;;;;;;;6.60;3.88;;;6.30;99.90;;;5.81;100.00;97253.44;5064047;27;129505;-73
2022/10/03 04:44:41;;;;;;;5.47;3.30;;;6.30;99.90;;;5.85;100.00;97248.97;5063402;27;120527;-73
2022/10/03 04:47:24;;;;;;;7.07;4.28;;;6.20;99.90;;;5.85;100.00;97243.59;5063820;27;119890;-74
2022/10/03 04:50:00;;;;;;;6.57;4.00;;;6.20;99.90;;;5.86;100.00;97242.44;5062089;27;130572;-71
2022/10/03 04:52:38;;;;;;;5.10;3.17;;;6.20;99.90;;;5.82;100.00;97222.72;5062747;27;129338;-72
2022/10/03 04:55:21;;;;;;;8.07;4.05;;;6.20;99.90;;;5.80;100.00;97220.38;5063188;27;119850;-73
2022/10/03 04:58:01;;;;;;;6.35;3.90;;;6.20;99.90;;;5.79;100.00;97236.84;5063202;27;119891;-73
2022/10/03 05:00:40;;;;;;;5.72;3.30;;;6.20;99.90;;;5.73;100.00;97210.16;5044536;27;130610;-72
2022/10/03 05:03:21;;;;;;;5.85;3.40;;;6.20;99.90;;;5.73;100.00;97195.91;5062818;27;129889;-74
2022/10/03 05:05:55;;;;;;;5.72;3.30;;;6.20;99.90;;;5.76;100.00;97198.72;5065314;27;119930;-74
2022/10/03 05:08:38;;;;;;;5.97;3.47;;;6.20;99.90;;;5.73;100.00;97183.25;5063300;27;119401;-73
2022/10/03 05:11:24;;;;;;;5.18;3.17;;;6.20;99.90;;;5.76;100.00;97181.78;5065092;27;129657;-74
2022/10/03 05:14:10;;;;;;;7.33;3.47;;;6.10;99.90;;;5.70;100.00;97167.78;5063538;27;129598;-74
2022/10/03 05:16:47;;;;;;;5.60;3.20;;;6.10;99.90;;;5.64;100.00;97163.72;5062044;27;121654;-77
2022/10/03 05:19:48;;;;;;;6.20;3.70;;;6.10;99.90;;;5.65;100.00;97149.13;5048251;27;120576;-71
2022/10/03 05:22:30;;;;;;;5.82;3.38;;;6.10;99.90;;;5.57;100.00;97147.34;5064989;27;129787;-75
2022/10/03 05:25:15;;;;;;;5.68;3.90;;;6.10;99.90;;;5.60;100.00;97151.28;5062493;27;129555;-76
2022/10/03 05:27:51;;;;;;;7.97;4.13;;;6.10;99.90;;;5.60;100.00;97140.53;5062843;27;120223;-74
2022/10/03 05:30:34;;;;;;;6.30;3.40;;;6.00;99.90;;;5.63;100.00;97139.84;5059649;27;119220;-70
2022/10/03 05:33:13;;;;;;;7.28;3.60;;;6.00;99.90;;;5.62;100.00;97130.97;5042097;27;129585;-72
2022/10/03 05:36:14;;;;;;;5.90;3.50;;;6.10;99.90;;;5.51;100.00;97127.94;5062589;27;129435;-73
2022/10/03 05:39:42;;;;;;;7.10;4.50;;;6.00;99.90;;;5.61;100.00;97118.66;5062594;27;119566;-79
2022/10/03 05:42:39;;;;;;;9.18;6.43;;;6.00;99.90;;;5.59;100.00;97107.44;5063278;27;118374;-76
2022/10/03 05:45:23;;;;;;;;;;;6.00;99.90;;;5.62;100.00;97101.38;5062011;27;130327;-76
2022/10/03 05:47:57;;;;;;;9.20;5.35;;;6.00;99.90;;;5.55;100.00;97112.72;5063524;27;130270;-74
2022/10/03 05:51:10;;;;;;;6.13;3.83;;;5.90;99.90;;;5.50;100.00;97104.06;5030719;27;119586;-75
2022/10/03 05:54:42;;;;;;;8.48;4.22;;;5.90;99.90;;;5.49;100.00;97089.06;5062316;27;119583;-76
2022/10/03 05:57:57;;;;;;;7.22;4.10;;;5.90;99.90;;;5.51;100.00;97090.28;5061838;27;129963;-72
2022/10/03 06:00:40;;;;;;;10.73;5.80;;;5.90;99.90;;;5.48;100.00;97090.19;5061980;27;129998;-77
2022/10/03 06:04:00;;;;;;;5.63;3.70;;;5.80;99.90;;;5.42;100.00;97083.44;5046984;27;118983;-72
2022/10/03 06:06:47;;;;;;;8.48;5.15;;;5.90;99.90;;;5.51;100.00;97084.13;5033119;27;119328;-74
2022/10/03 06:10:01;;;;;;;5.97;3.60;;;5.90;99.90;;;5.48;100.00;97095.56;5061586;27;130052;-74
2022/10/03 06:12:39;;;;;;;6.32;4.03;;;5.90;99.90;;;5.47;100.00;97093.97;5063422;27;129130;-75
2022/10/03 06:15:54;;;;;;;7.97;4.82;;;5.90;99.90;;;5.52;100.00;97101.84;5061007;27;123480;-71
2022/10/03 06:19:15;;;;;;;7.35;3.97;;;5.90;99.90;;;5.52;100.00;97085.69;5030923;27;122047;-74
2022/10/03 06:22:35;;;;;;;6.88;4.30;;;5.90;99.90;;;5.54;100.00;97083.44;5061567;27;130319;-74
2022/10/03 06:25:46;;;;;;;6.70;4.20;;;5.90;99.90;;;5.54;100.00;97086.13;5046180;27;128476;-75
2022/10/03 06:29:11;;;;;;;6.75;4.20;;;5.90;99.90;;;5.49;100.00;97094.44;5051425;27;119648;-74
2022/10/03 06:32:22;;;;;;;6.50;4.07;;;5.80;99.90;;;5.49;100.00;97081.00;5051899;27;119701;-75
2022/10/03 06:35:29;;;;;;;5.57;3.50;;;5.80;99.90;;;5.40;100.00;97065.72;5061662;27;129318;-76
2022/10/03 06:38:53;;;;;;;7.05;4.40;;;5.80;99.90;;;5.42;100.00;97067.31;5046873;27;128225;-77
2022/10/03 06:42:18;;;;;;;7.45;5.20;;;5.80;99.90;;;5.42;100.00;97070.00;5044383;27;119441;-76
2022/10/03 06:45:44;;;;;;;6.18;3.83;;;5.80;99.90;;;5.40;100.00;97064.97;5046660;27;118550;-75
2022/10/03 06:49:06;;;;;;;6.97;4.18;;;5.70;99.90;;;5.37;100.00;97071.78;5040615;27;129967;-74
2022/10/03 06:52:06;;;;;;;7.05;4.47;;;5.70;99.90;;;5.37;100.00;97058.34;5061597;27;130392;-77
2022/10/03 06:55:27;;;;;;;8.02;4.28;;;5.70;99.90;;;5.36;100.00;97062.16;5061396;27;119764;-76
2022/10/03 06:58:55;;;;;;;8.73;4.28;;;5.70;99.90;;;5.40;100.00;97059.56;5061332;27;119485;-73
2022/10/03 07:02:21;;;;;;;7.15;4.45;;;5.70;99.90;;;5.41;100.00;97058.47;5050961;27;131048;-76
2022/10/03 07:05:50;;;;;;;7.05;4.18;;;5.80;99.90;;;5.40;100.00;97062.25;4979125;28;129383;-75
2022/10/03 07:09:15;;;;;;;5.85;3.95;;;5.80;99.90;;;5.43;100.00;97058.13;5041013;27;120050;-78
2022/10/03 07:12:38;;;;;;;5.53;3.47;;;5.70;99.90;;;5.39;100.00;97066.88;5041517;27;119771;-73
2022/10/03 07:15:43;;;;;;;5.65;3.72;;;5.70;99.90;;;5.34;100.00;97048.25;5040354;27;129863;-76
2022/10/03 07:19:03;;;;;;;6.72;4.07;;;5.70;99.90;;;5.42;100.00;97048.47;5040397;27;129466;-78
2022/10/03 07:22:44;;;;;;;6.68;3.70;;;5.70;99.90;;;5.38;100.00;97043.78;5020768;27;122229;-72
2022/10/03 07:25:50;;;;;;;7.32;4.47;;;5.70;99.90;;;5.45;100.00;97037.81;5040305;27;121831;-76
2022/10/03 07:29:05;;;;;;;6.68;3.78;;;5.80;99.90;;;5.40;100.00;97051.50;5046236;27;130902;-77
2022/10/03 07:31:50;;;;;;;7.95;3.75;;;5.70;99.90;;;5.39;100.00;97036.47;5044552;27;129425;-73
2022/10/03 07:35:08;;;;;;;6.47;3.63;;;5.70;99.90;;;5.36;100.00;97046.03;5060271;27;120184;-73
2022/10/03 07:41:28;;;;;;;6.83;3.90;;;5.70;99.90;;;5.30;100.00;97046.56;5062951;27;129760;-73
2022/10/03 07:44:41;;;;;;;10.45;5.07;;;5.70;99.90;;;5.36;100.00;97046.03;5040683;27;130131;-75
2022/10/03 07:47:59;;;;;;;4.75;3.10;;;5.70;99.90;;;5.20;100.00;97043.22;5041909;27;119290;-72
2022/10/03 07:50:56;;;;;;;6.97;4.03;;;5.70;99.90;;;5.25;100.00;97044.91;4998745;27;119795;-72
2022/10/03 07:54:13;;;;;;;9.15;5.00;;;5.70;99.90;;;5.21;100.00;97044.78;5023192;27;128896;-72
2022/10/03 07:57:20;;;;;;;7.30;3.40;;;5.70;99.90;;;4.96;100.00;97037.84;5007632;27;128837;-70
2022/10/03 08:00:23;;;;;;;6.30;2.75;;;5.60;99.90;;;4.87;100.00;97029.84;5043288;27;120045;-67
2022/10/03 08:04:00;;;;;;;5.80;2.95;;;5.50;99.90;;;4.82;100.00;97038.16;5043406;27;119097;-70
2022/10/03 08:06:42;;;;;;;4.57;2.17;;;5.40;99.90;;;4.82;100.00;97043.53;4998019;27;130364;-68
2022/10/03 08:09:45;;;;;;;3.80;1.85;;;5.40;99.90;;;4.82;100.00;97027.41;5042936;27;129474;-72
2022/10/03 08:13:01;;;;;;;3.17;1.80;;;5.40;99.90;;;4.76;100.00;97036.78;5043070;27;119500;-69
2022/10/03 08:15:48;;;;;;;5.30;2.45;;;5.40;99.90;;;4.88;100.00;97026.06;5043744;27;119205;-69
2022/10/03 08:18:48;;;;;;;3.40;2.10;;;5.40;99.90;;;4.79;100.00;97022.69;5042695;27;130243;-72
2022/10/03 08:21:25;;;;;;;3.92;2.10;;;5.40;99.90;;;4.84;100.00;97022.47;5010951;27;128337;-69
2022/10/03 08:24:17;;;;;;;;;;;5.30;99.90;;;4.77;100.00;97024.91;5041982;27;122375;-67
2022/10/03 08:27:06;;;;;;;2.75;1.75;;;5.40;99.90;;;4.76;100.00;97029.50;5042938;27;121473;-69
2022/10/03 08:30:19;;;;;;;4.10;1.92;;;5.40;99.90;;;4.75;100.00;97032.53;5042325;27;129808;-68
2022/10/03 08:33:35;;;;;;;3.53;1.70;;;5.30;99.90;;;4.70;100.00;97027.38;5042797;27;130032;-70
2022/10/03 08:36:41;;;;;;;7.22;3.30;;;5.30;99.90;;;4.60;100.00;97021.31;5042667;27;120159;-69
2022/10/03 08:39:24;;;;;;;9.52;3.60;;;5.30;99.90;;;4.68;100.00;97017.72;5024620;27;119454;-71
2022/10/03 08:42:39;;;;;;;5.88;3.17;;;5.30;99.90;;;4.87;100.00;97024.47;5027080;27;129706;-70
2022/10/03 08:46:03;;;;;;;13.13;5.35;;;5.30;99.90;;;4.87;100.00;97024.47;5019081;27;129541;-70
2022/10/03 08:49:02;;;;;;;24.85;9.60;;;5.30;99.90;;;4.89;100.00;97022.25;4943882;28;119624;-69
2022/10/03 08:52:22;;;;;;;13.43;4.85;;;5.30;99.90;;;4.75;100.00;97025.25;4943354;28;119416;-69
2022/10/03 08:55:27;;;;;;;9.82;4.03;;;5.30;99.90;;;4.73;100.00;97022.09;4958357;28;129955;-70
2022/10/03 08:58:31;;;;;;;6.85;3.13;;;5.20;99.90;;;4.64;100.00;97010.66;4962556;28;129730;-71
2022/10/03 09:01:42;;;;;;;3.67;1.90;;;5.20;99.90;;;4.56;100.00;97031.13;4940173;28;120179;-68
2022/10/03 09:05:10;;;;;;;4.05;1.90;;;5.10;99.90;;;4.60;100.00;97021.31;4962088;28;119224;-70
2022/10/03 09:08:23;;;;;;;4.57;2.72;;;5.20;99.90;;;4.62;100.00;97013.69;4947624;28;130004;-72
2022/10/03 09:11:47;;;;;;;4.63;2.60;;;5.10;99.90;;;4.51;100.00;97020.63;4962064;28;129757;-70
2022/10/03 09:14:49;;;;;;;3.58;1.70;;;5.10;99.90;;;4.45;100.00;97030.78;4920868;28;119869;-70
2022/10/03 09:18:19;;;;;;;2.55;1.05;;;5.00;99.90;;;4.25;100.00;97021.63;4946757;28;119127;-68
2022/10/03 09:21:41;;;;;;;1.70;1.30;;;4.90;99.90;;;4.11;100.00;97016.56;4922440;28;130163;-68
2022/10/03 09:25:04;;;;;;;2.08;1.20;;;4.80;99.90;;;4.06;100.00;97045.50;4939784;28;129911;-70
2022/10/03 09:28:12;;;;;;;2.42;1.15;;;4.70;99.90;;;4.02;100.00;97023.13;5023868;27;122099;-69
2022/10/03 09:30:53;;;;;;;2.53;1.30;;;4.70;99.90;;;4.12;100.00;97017.34;5045309;27;122703;-73
2022/10/03 09:34:05;;;;;;;3.30;1.80;;;4.70;99.90;;;4.11;100.00;97026.50;5023652;27;130156;-66
2022/10/03 09:37:44;;;;;;;3.65;1.60;;;4.60;99.90;;;3.95;100.00;97016.38;5041753;27;129277;-69
2022/10/03 09:41:11;;;;;;;5.40;2.38;;;4.50;99.90;;;3.92;100.00;97018.94;4979772;28;119994;-70
2022/10/03 09:44:17;;;;;;;3.80;1.58;;;4.50;99.90;;;3.86;100.00;97036.34;4965977;28;119231;-73
2022/10/03 09:47:27;;;;;;;4.10;2.10;;;4.50;99.90;;;3.90;100.00;97021.94;4959051;28;130143;-76
2022/10/03 09:50:54;;;;;;;2.95;1.60;;;4.60;99.90;;;3.78;100.00;97024.56;4974726;28;129486;-76
2022/10/03 09:54:01;;;;;;;3.97;1.90;;;4.50;99.90;;;3.77;100.00;97014.94;4979126;28;119448;-75
2022/10/03 09:57:21;;;;;;;2.63;1.67;;;4.50;99.90;;;3.88;100.00;97015.31;4968619;28;119786;-76
2022/10/03 10:00:22;;;;;;;1.23;1.13;;;4.50;99.90;;;3.73;100.00;97011.34;4929130;28;129925;-72
2022/10/03 10:03:58;;;;;;;3.10;1.40;;;4.40;99.90;;;3.82;100.00;97009.41;4980699;28;129313;-74
2022/10/03 10:07:09;;;;;;;3.95;1.85;;;4.40;99.90;;;3.85;100.00;97014.09;4941809;28;118658;-76
2022/10/03 10:10:32;;;;;;;2.38;1.30;;;4.40;99.90;;;3.85;100.00;97014.09;4976872;28;120540;-74
2022/10/03 10:13:35;;;;;;;3.67;1.90;;;4.40;99.90;;;4.01;100.00;97010.81;4923346;28;129468;-76
2022/10/03 10:16:44;;;;;;;3.95;2.10;;;4.40;99.90;;;4.04;100.00;96999.44;5003510;27;129562;-74
2022/10/03 10:19:53;;;;;;;6.65;2.72;;;4.40;99.90;;;4.11;100.00;97002.34;5041227;27;119787;-71
2022/10/03 10:23:12;;;;;;;3.53;1.85;;;4.50;99.90;;;4.13;100.00;97018.94;5035186;27;118764;-75
2022/10/03 10:26:37;;;;;;;2.83;1.42;;;4.40;99.90;;;3.88;100.00;97005.41;5046177;27;129189;-68
2022/10/03 10:29:40;;;;;;;2.47;1.40;;;4.40;99.90;;;3.94;100.00;97006.78;5060990;27;129971;-71
2022/10/03 10:33:17;;;;;;;2.42;1.23;;;4.30;99.90;;;4.18;100.00;97010.66;5060324;27;121812;-72
2022/10/03 10:37:11;;;;;;;4.05;1.77;;;4.40;99.90;;;4.05;100.00;97006.34;5046244;27;121466;-72
2022/10/03 10:40:36;;;;;;;4.65;1.83;;;4.40;99.90;;;3.87;100.00;97011.88;5045830;27;129368;-69
2022/10/03 10:44:06;;;;;;;3.55;1.67;;;4.20;99.90;;;3.99;100.00;97013.84;5045848;27;129783;-77
2022/10/03 10:47:45;;;;;;;3.05;1.80;;;4.30;99.90;;;3.64;100.00;97007.94;4988269;27;120096;-68
2022/10/03 10:50:45;;;;;;;6.60;3.42;;;4.20;99.90;;;3.79;100.00;97004.69;5042562;27;119347;-71
2022/10/03 10:54:25;;;;;;;4.82;2.63;;;4.30;99.90;;;3.76;100.00;97005.34;5045828;27;129664;-76
2022/10/03 10:57:24;;;;;;;5.43;2.20;;;4.30;99.90;;;3.98;100.00;97006.13;5025178;27;129626;-72
2022/10/03 11:00:16;;;;;;;2.25;1.40;;;4.30;99.90;;;3.92;100.00;96992.09;5060891;27;119735;-73
2022/10/03 11:03:52;;;;;;;1.65;1.17;;;4.20;99.90;;;3.94;100.00;97004.09;5060939;27;119637;-71
2022/10/03 11:07:19;;;;;;;1.75;1.20;;;4.10;99.90;;;3.86;100.00;96996.88;4998735;28;130241;-73
2022/10/03 11:10:36;;;;;;;3.10;1.40;;;4.00;99.90;;;3.75;100.00;97003.75;5050252;27;129408;-72
2022/10/03 11:14:06;;;;;;;1.23;1.00;;;4.00;99.90;;;3.71;100.00;97002.84;5000915;28;119716;-73
2022/10/03 11:17:31;;;;;;;2.30;1.33;;;3.90;1.00;;;3.77;100.00;96986.22;4997740;28;119392;-75
2022/10/03 11:20:52;;;;;;;3.80;1.50;;;3.90;1.00;;;3.90;100.00;96995.13;5007889;27;129899;-74
2022/10/03 11:24:09;;;;;;;1.92;1.20;;;4.00;1.00;;;3.99;100.00;96987.00;5031089;27;129458;-72
2022/10/03 11:27:52;;;;;;;1.20;0.98;;;4.10;1.00;;;3.79;100.00;96993.94;5060686;27;119610;-70
2022/10/03 11:31:14;;;;;;;1.65;1.08;;;4.00;1.00;;;3.89;100.00;96984.72;5042551;27;119982;-71
2022/10/03 11:34:35;;;;;;;2.17;1.27;;;4.10;1.00;;;3.91;100.00;96995.88;5059669;27;129874;-72
2022/10/03 11:37:12;;;;;;;2.25;1.27;;;4.10;1.00;;;4.02;100.00;96980.16;5060230;27;130235;-73
2022/10/03 11:39:46;;;;;;;;;;;4.20;1.00;;;4.01;100.00;96992.03;5061529;27;123903;-71
2022/10/03 11:42:31;;;;;;;2.58;1.45;;;4.20;1.00;;;3.90;100.00;96980.91;5060339;27;121562;-72
2022/10/03 11:45:03;;;;;;;6.97;1.75;;;4.20;99.90;;;3.96;100.00;96999.16;5059757;27;129975;-72
2022/10/03 11:47:54;;;;;;;3.28;1.60;;;4.30;99.90;;;3.90;100.00;96995.13;5059974;27;130478;-69
2022/10/03 11:50:41;;;;;;;3.17;1.65;;;4.30;99.90;;;4.01;100.00;96992.03;5060239;27;120651;-71
2022/10/03 11:53:38;;;;;;;4.97;2.10;;;4.30;99.90;;;4.07;100.00;96993.41;5045298;27;118596;-71
2022/10/03 11:56:30;;;;;;;4.67;2.20;;;4.30;99.90;;;4.19;100.00;96996.13;5055664;27;130007;-69
2022/10/03 11:59:36;;;;;;;5.25;2.35;;;4.40;99.90;;;4.15;100.00;96992.53;5060276;27;129569;-71
2022/10/03 12:02:16;;;;;;;6.88;2.92;;;4.30;99.90;;;4.32;100.00;96988.91;5060199;27;119667;-71
2022/10/03 12:04:59;;;;;;;6.32;2.55;;;4.50;99.90;;;4.39;100.00;96999.09;5060889;27;119794;-70
2022/10/03 12:10:56;;;;;;;4.18;2.20;;;4.50;99.90;;;4.50;100.00;97000.22;5059459;27;129444;-73
2022/10/03 12:13:36;;;;;;;8.35;3.90;;;4.50;99.90;;;4.32;100.00;97013.84;5060205;27;120309;-74
2022/10/03 12:16:12;;;;;;;11.85;4.45;;;4.50;99.90;;;4.34;100.00;97002.00;5060200;27;119751;-72
2022/10/03 12:18:56;;;;;;;6.60;3.08;;;4.50;99.90;;;4.35;100.00;96998.97;5059660;27;129922;-74
2022/10/03 12:21:41;;;;;;;7.40;3.58;;;4.50;99.90;;;4.43;100.00;97000.00;5059754;27;129507;-71
2022/10/03 12:24:27;;;;;;;5.82;2.97;;;4.60;99.90;;;4.53;100.00;97004.94;5060242;27;119606;-73
2022/10/03 12:27:07;;;;;;;5.13;2.03;;;4.70;99.90;;;4.66;100.00;96998.50;5060690;27;119579;-72
2022/10/03 12:29:44;;;;;;;6.40;2.63;;;4.70;99.90;;;4.66;100.00;96997.72;5059278;27;130298;-73
2022/10/03 12:32:37;;;;;;;7.50;2.63;;;4.70;99.90;;;4.64;100.00;96995.34;5059270;27;130121;-72
2022/10/03 12:35:28;;;;;;;4.90;1.95;;;4.70;99.90;;;4.62;100.00;97000.25;5043588;27;121239;-72
2022/10/03 12:38:33;;;;;;;8.05;2.70;;;4.60;99.90;;;4.45;100.00;96995.09;5039833;27;122015;-73
2022/10/03 12:41:20;;;;;;;6.55;3.10;;;4.60;99.90;;;4.59;100.00;96997.47;5059345;27;130052;-72
2022/10/03 12:44:09;;;;;;;6.85;2.88;;;4.70;99.90;;;4.57;100.00;97000.47;5044054;27;128864;-69
2022/10/03 12:46:48;;;;;;;5.28;2.55;;;4.60;99.90;;;4.44;100.00;96997.00;5063174;27;120065;-71
2022/10/03 12:49:38;;;;;;;5.68;2.55;;;4.50;99.90;;;4.53;100.00;96998.78;5063012;27;119581;-69
2022/10/03 12:52:19;;;;;;;4.93;2.28;;;4.60;99.90;;;4.52;100.00;97016.81;5062390;27;130680;-71
2022/10/03 12:55:01;;;;;;;4.80;2.38;;;4.60;99.90;;;4.25;100.00;97013.59;5048132;27;128749;-70